createdAt,value
2019-03-23T00:01:42.121Z,45.57
2019-03-23T00:04:15.887Z,49.93
2019-03-23T00:06:49.389Z,55.90
2019-03-23T00:09:22.925Z,44.07
2019-03-23T00:11:56.552Z,57.17
2019-03-23T00:14:30.031Z,41.00
2019-03-23T00:17:03.565Z,40.93
2019-03-23T00:19:36.920Z,45.77
2019-03-23T00:22:10.429Z,48.07
2019-03-23T00:24:43.909Z,47.23
2019-03-23T00:27:18.379Z,44.50
2019-03-23T00:29:51.800Z,45.63
2019-03-23T00:32:25.276Z,37.70
2019-03-23T00:34:58.690Z,42.50
2019-03-23T00:37:32.230Z,56.00
2019-03-23T00:40:08.198Z,44.67
2019-03-23T00:42:41.746Z,47.80
2019-03-23T00:45:15.183Z,55.77
2019-03-23T00:47:48.645Z,45.53
2019-03-23T00:50:22.012Z,40.13
2019-03-23T00:52:55.480Z,35.77
2019-03-23T00:55:28.978Z,32.57
2019-03-23T00:58:02.507Z,43.30
2019-03-23T01:00:36.008Z,43.10
2019-03-23T01:03:09.609Z,63.63
2019-03-23T01:05:43.037Z,55.13
2019-03-23T01:08:16.608Z,50.23
2019-03-23T01:10:50.073Z,44.43
2019-03-23T01:13:24.012Z,45.03
2019-03-23T01:15:57.697Z,49.07
2019-03-23T01:18:31.422Z,47.57
2019-03-23T01:21:05.105Z,44.67
2019-03-23T01:23:38.747Z,38.03
2019-03-23T01:26:12.463Z,37.10
2019-03-23T01:28:46.049Z,42.60
2019-03-23T01:31:19.471Z,37.83
2019-03-23T01:33:52.996Z,34.60
2019-03-23T01:36:26.540Z,24.77
2019-03-23T01:39:00.057Z,23.23
2019-03-23T01:41:33.956Z,19.37
2019-03-23T01:44:07.564Z,18.40
2019-03-23T01:46:40.985Z,19.80
2019-03-23T01:49:14.582Z,18.43
2019-03-23T01:51:48.191Z,21.40
2019-03-23T01:54:21.735Z,27.53
2019-03-23T01:56:55.359Z,22.10
2019-03-23T01:59:28.971Z,25.03
2019-03-23T02:02:02.464Z,24.83
2019-03-23T02:04:36.067Z,34.37
2019-03-23T02:07:13.862Z,36.33
2019-03-23T02:09:44.744Z,41.43
2019-03-23T02:12:18.347Z,38.73
2019-03-23T02:14:51.847Z,45.27
2019-03-23T02:17:25.471Z,44.40
2019-03-23T02:19:58.973Z,41.00
2019-03-23T02:22:32.541Z,36.63
2019-03-23T02:25:07.200Z,39.13
2019-03-23T02:27:40.744Z,39.97
2019-03-23T02:30:14.449Z,42.30
2019-03-23T02:32:48.204Z,34.60
2019-03-23T02:35:21.652Z,37.67
2019-03-23T02:37:55.212Z,36.67
2019-03-23T02:40:30.844Z,44.57
2019-03-23T02:43:07.185Z,43.90
2019-03-23T02:45:40.964Z,40.57
2019-03-23T02:48:14.665Z,37.47
2019-03-23T02:50:48.223Z,38.37
2019-03-23T02:53:21.692Z,42.80
2019-03-23T02:55:55.354Z,49.47
2019-03-23T02:58:30.691Z,44.10
2019-03-23T03:01:04.186Z,49.90
2019-03-23T03:03:41.758Z,42.03
2019-03-23T03:06:15.371Z,41.97
2019-03-23T03:08:48.962Z,43.73
2019-03-23T03:11:26.579Z,41.57
2019-03-23T03:14:00.424Z,40.30
2019-03-23T03:16:35.327Z,39.80
2019-03-23T03:19:10.247Z,43.30
2019-03-23T03:21:46.421Z,44.77
2019-03-23T03:24:20.018Z,45.53
2019-03-23T03:26:53.545Z,47.73
2019-03-23T03:29:27.280Z,44.10
2019-03-23T03:32:01.534Z,44.60
2019-03-23T03:34:35.045Z,47.70
2019-03-23T03:37:08.547Z,47.43
2019-03-23T03:39:41.939Z,40.97
2019-03-23T03:42:15.602Z,44.23
2019-03-23T03:44:49.214Z,35.53
2019-03-23T03:47:22.756Z,36.07
2019-03-23T03:49:56.222Z,32.97
2019-03-23T03:52:29.854Z,30.27
2019-03-23T03:55:03.737Z,33.10
2019-03-23T03:57:37.233Z,35.23
2019-03-23T04:00:10.884Z,41.97
2019-03-23T04:02:44.337Z,40.77
2019-03-23T04:05:17.878Z,41.17
2019-03-23T04:07:51.416Z,45.23
2019-03-23T04:10:24.941Z,43.37
2019-03-23T04:12:58.984Z,39.07
2019-03-23T04:15:32.557Z,41.43
2019-03-23T04:18:06.041Z,45.20
2019-03-23T04:20:39.571Z,42.07
2019-03-23T04:23:13.087Z,44.70
2019-03-23T04:25:46.742Z,41.40
2019-03-23T04:28:20.373Z,42.57
2019-03-23T04:30:53.828Z,40.03
2019-03-23T04:33:27.258Z,42.97
2019-03-23T04:36:00.814Z,45.03
2019-03-23T04:38:34.302Z,46.07
2019-03-23T04:41:07.821Z,46.20
2019-03-23T04:43:41.392Z,46.80
2019-03-23T04:46:14.891Z,58.53
2019-03-23T04:48:48.516Z,52.00
2019-03-23T04:51:21.974Z,51.60
2019-03-23T04:53:55.709Z,49.67
2019-03-23T04:56:29.256Z,54.50
2019-03-23T04:59:02.889Z,88.23
2019-03-23T05:01:36.388Z,93.37
2019-03-23T05:04:10.054Z,97.57
2019-03-23T05:06:43.550Z,94.30
2019-03-23T05:09:17.093Z,81.87
2019-03-23T05:11:50.579Z,74.40
2019-03-23T05:14:24.118Z,77.13
2019-03-23T05:16:57.679Z,72.83
2019-03-23T05:19:31.421Z,70.13
2019-03-23T05:22:04.920Z,76.77
2019-03-23T05:24:38.575Z,66.77
2019-03-23T05:27:11.998Z,63.60
2019-03-23T05:29:45.545Z,65.47
2019-03-23T05:32:19.048Z,65.70
2019-03-23T05:34:52.514Z,59.50
2019-03-23T05:37:26.142Z,60.07
2019-03-23T05:39:59.652Z,61.50
2019-03-23T05:42:33.152Z,59.20
2019-03-23T05:45:07.782Z,55.40
2019-03-23T05:47:41.338Z,59.27
2019-03-23T05:50:14.879Z,53.03
2019-03-23T05:52:48.489Z,54.53
2019-03-23T05:55:22.167Z,52.33
2019-03-23T05:57:55.614Z,54.07
2019-03-23T06:00:29.247Z,52.10
2019-03-23T06:03:02.998Z,51.07
2019-03-23T06:05:39.539Z,52.67
2019-03-23T06:08:13.147Z,48.93
2019-03-23T06:10:46.790Z,51.83
2019-03-23T06:13:20.268Z,53.53
2019-03-23T06:15:53.837Z,50.83
2019-03-23T06:18:27.542Z,52.97
2019-03-23T06:21:01.261Z,49.07
2019-03-23T06:23:34.961Z,48.07
2019-03-23T06:26:08.486Z,48.43
2019-03-23T06:28:42.075Z,49.87
2019-03-23T06:31:15.520Z,49.00
2019-03-23T06:33:49.018Z,49.80
2019-03-23T06:36:22.706Z,47.90
2019-03-23T06:39:05.013Z,47.70
2019-03-23T06:41:31.401Z,48.23
2019-03-23T06:44:05.114Z,47.43
2019-03-23T06:46:38.773Z,47.50
2019-03-23T06:49:12.243Z,46.37
2019-03-23T06:51:45.862Z,49.90
2019-03-23T06:54:19.338Z,49.43
2019-03-23T06:56:52.842Z,45.23
2019-03-23T06:59:26.297Z,46.97
2019-03-23T07:01:59.735Z,47.87
2019-03-23T07:04:33.229Z,49.97
2019-03-23T07:07:06.870Z,48.00
2019-03-23T07:09:40.557Z,48.63
2019-03-23T07:12:15.790Z,46.00
2019-03-23T07:14:50.415Z,46.47
2019-03-23T07:17:24.639Z,48.07
2019-03-23T07:19:58.937Z,51.93
2019-03-23T07:22:33.052Z,49.53
2019-03-23T07:25:09.230Z,47.93
2019-03-23T07:27:43.253Z,48.20
2019-03-23T07:30:20.021Z,49.43
2019-03-23T07:32:54.614Z,48.93
2019-03-23T07:35:28.494Z,50.07
2019-03-23T07:38:02.572Z,48.70
2019-03-23T07:40:36.784Z,52.77
2019-03-23T07:43:10.688Z,51.40
2019-03-23T07:45:44.713Z,52.83
2019-03-23T07:48:18.774Z,51.93
2019-03-23T07:50:52.873Z,52.63
2019-03-23T07:53:26.697Z,49.80
2019-03-23T07:56:00.690Z,49.93
2019-03-23T07:58:34.517Z,48.53
2019-03-23T08:01:08.558Z,51.50
2019-03-23T08:03:44.296Z,49.27
2019-03-23T08:06:18.201Z,49.97
2019-03-23T08:08:52.119Z,51.23
2019-03-23T08:11:29.090Z,51.10
2019-03-23T08:14:02.940Z,51.57
2019-03-23T08:16:36.913Z,49.37
2019-03-23T08:19:10.587Z,50.83
2019-03-23T08:21:44.789Z,51.37
2019-03-23T08:24:20.393Z,51.23
2019-03-23T08:26:54.877Z,49.20
2019-03-23T08:29:28.877Z,50.53
2019-03-23T08:32:03.533Z,50.43
2019-03-23T08:34:37.675Z,49.80
2019-03-23T08:37:12.137Z,48.17
2019-03-23T08:39:48.693Z,49.07
2019-03-23T08:42:21.806Z,46.73
2019-03-23T08:44:55.868Z,46.40
2019-03-23T08:47:30.210Z,46.20
2019-03-23T08:50:05.952Z,45.43
2019-03-23T08:52:39.992Z,46.03
2019-03-23T08:55:14.026Z,46.83
2019-03-23T08:57:47.983Z,43.77
2019-03-23T09:00:21.844Z,45.00
2019-03-23T09:02:55.286Z,45.70
2019-03-23T09:05:29.480Z,46.57
2019-03-23T09:08:05.095Z,47.57
2019-03-23T09:10:40.471Z,47.33
2019-03-23T09:13:15.717Z,44.50
2019-03-23T09:15:49.861Z,46.37
2019-03-23T09:18:23.731Z,46.30
2019-03-23T09:20:57.661Z,46.37
2019-03-23T09:23:32.953Z,46.23
2019-03-23T09:26:08.500Z,48.20
2019-03-23T09:28:42.559Z,43.97
2019-03-23T09:31:17.965Z,43.70
2019-03-23T09:33:51.865Z,45.07
2019-03-23T09:36:26.130Z,45.77
2019-03-23T09:39:01.089Z,46.80
2019-03-23T09:41:35.130Z,45.83
2019-03-23T09:44:09.250Z,46.20
2019-03-23T09:46:42.958Z,43.87
2019-03-23T09:49:17.056Z,46.50
2019-03-23T09:51:51.102Z,49.20
2019-03-23T09:54:25.165Z,46.73
2019-03-23T09:56:59.949Z,51.27
2019-03-23T09:59:33.930Z,48.63
2019-03-23T10:02:08.466Z,47.27
2019-03-23T10:04:47.215Z,48.80
2019-03-23T10:07:21.947Z,45.77
2019-03-23T10:09:56.156Z,44.23
2019-03-23T10:12:30.099Z,45.50
2019-03-23T10:15:06.081Z,47.90
2019-03-23T10:17:40.346Z,45.40
2019-03-23T10:20:14.141Z,41.70
2019-03-23T10:22:48.032Z,44.48
2019-03-23T10:25:22.883Z,42.30
2019-03-23T10:27:56.891Z,41.47
2019-03-23T10:30:30.829Z,40.23
2019-03-23T10:33:05.443Z,40.30
2019-03-23T10:35:39.531Z,40.43
2019-03-23T10:38:13.615Z,38.83
2019-03-23T10:40:47.889Z,38.40
2019-03-23T10:43:22.094Z,38.35
2019-03-23T10:45:56.283Z,35.43
2019-03-23T10:48:30.405Z,35.65
2019-03-23T10:51:04.464Z,35.35
2019-03-23T10:53:38.495Z,36.77
2019-03-23T10:56:12.400Z,36.15
2019-03-23T10:58:46.394Z,35.73
2019-03-23T11:01:20.400Z,35.07
2019-03-23T11:03:54.830Z,38.37
2019-03-23T11:06:28.841Z,36.48
2019-03-23T11:09:02.984Z,35.20
2019-03-23T11:11:37.218Z,34.05
2019-03-23T11:14:11.173Z,31.90
2019-03-23T11:16:44.985Z,32.53
2019-03-23T11:19:19.031Z,33.58
2019-03-23T11:21:53.102Z,33.13
2019-03-23T11:24:27.003Z,31.68
2019-03-23T11:27:01.202Z,30.82
2019-03-23T11:29:35.243Z,30.08
2019-03-23T11:32:09.211Z,31.23
2019-03-23T11:34:43.434Z,30.25
2019-03-23T11:37:19.900Z,30.15
2019-03-23T11:39:53.778Z,30.10
2019-03-23T11:42:27.762Z,30.62
2019-03-23T11:45:01.897Z,31.87
2019-03-23T11:47:36.058Z,30.45
2019-03-23T11:50:13.070Z,30.25
2019-03-23T11:52:47.225Z,29.77
2019-03-23T11:55:21.021Z,28.38
2019-03-23T11:57:55.374Z,29.65
2019-03-23T12:00:29.359Z,28.70
2019-03-23T12:03:03.417Z,30.57
2019-03-23T12:05:37.055Z,28.87
2019-03-23T12:08:10.861Z,29.00
2019-03-23T12:10:45.043Z,27.87
2019-03-23T12:13:19.303Z,27.32
2019-03-23T12:15:53.418Z,28.07
2019-03-23T12:18:27.460Z,26.97
2019-03-23T12:21:01.492Z,27.80
2019-03-23T12:23:35.450Z,28.85
2019-03-23T12:26:09.531Z,28.07
2019-03-23T12:28:43.593Z,28.10
2019-03-23T12:31:18.140Z,28.73
2019-03-23T12:33:52.279Z,29.25
2019-03-23T12:36:26.361Z,29.82
2019-03-23T12:39:00.511Z,30.08
2019-03-23T12:41:34.615Z,29.18
2019-03-23T12:44:08.632Z,31.48
2019-03-23T12:46:48.349Z,30.25
2019-03-23T12:49:18.444Z,32.08
2019-03-23T12:51:52.533Z,32.55
2019-03-23T12:54:28.077Z,32.90
2019-03-23T12:57:02.008Z,33.02
2019-03-23T12:59:35.938Z,33.08
2019-03-23T13:02:09.988Z,31.82
2019-03-23T13:04:44.559Z,33.30
2019-03-23T13:07:18.635Z,34.60
2019-03-23T13:09:52.393Z,32.33
2019-03-23T13:12:26.295Z,32.13
2019-03-23T13:15:00.317Z,34.45
2019-03-23T13:17:34.410Z,31.48
2019-03-23T13:20:09.078Z,32.15
2019-03-23T13:22:43.267Z,32.23
2019-03-23T13:25:17.206Z,33.33
2019-03-23T13:27:51.238Z,32.20
2019-03-23T13:30:25.012Z,33.05
2019-03-23T13:32:59.028Z,32.08
2019-03-23T13:35:32.857Z,30.90
2019-03-23T13:38:06.954Z,31.50
2019-03-23T13:40:40.943Z,33.60
2019-03-23T13:43:15.159Z,33.50
2019-03-23T13:45:48.915Z,33.08
2019-03-23T13:48:23.977Z,34.05
2019-03-23T13:50:57.897Z,35.60
2019-03-23T13:53:33.452Z,34.00
2019-03-23T13:56:07.389Z,33.80
2019-03-23T13:58:41.490Z,34.38
2019-03-23T14:01:15.407Z,34.33
2019-03-23T14:03:50.724Z,33.92
2019-03-23T14:06:24.248Z,34.65
2019-03-23T14:08:58.228Z,34.00
2019-03-23T14:11:32.351Z,35.92
2019-03-23T14:14:06.357Z,34.08
2019-03-23T14:16:40.478Z,37.78
2019-03-23T14:19:14.268Z,38.45
2019-03-23T14:21:47.917Z,41.60
2019-03-23T14:24:21.873Z,42.30
2019-03-23T14:26:56.410Z,41.80
2019-03-23T14:29:30.504Z,43.13
2019-03-23T14:32:05.689Z,42.57
2019-03-23T14:34:39.971Z,43.87
2019-03-23T14:37:14.278Z,44.20
2019-03-23T14:39:48.304Z,45.83
2019-03-23T14:42:24.701Z,45.92
2019-03-23T14:44:58.845Z,44.20
2019-03-23T14:47:32.703Z,47.93
2019-03-23T14:50:07.565Z,44.48
2019-03-23T14:52:41.474Z,46.15
2019-03-23T14:55:15.778Z,47.53
2019-03-23T14:57:50.636Z,44.73
2019-03-23T15:00:32.149Z,45.23
2019-03-23T15:03:06.119Z,47.80
2019-03-23T15:05:40.282Z,46.85
2019-03-23T15:08:14.124Z,44.55
2019-03-23T15:10:48.141Z,48.85
2019-03-23T15:13:22.271Z,45.10
2019-03-23T15:15:58.235Z,47.67
2019-03-23T15:18:32.363Z,47.60
2019-03-23T15:21:06.625Z,47.85
2019-03-23T15:23:40.683Z,49.15
2019-03-23T15:26:14.750Z,48.33
2019-03-23T15:28:48.665Z,47.73
2019-03-23T15:31:22.744Z,49.80
2019-03-23T15:33:56.738Z,47.35
2019-03-23T15:36:30.621Z,47.33
2019-03-23T15:39:06.504Z,47.77
2019-03-23T15:41:40.433Z,48.80
2019-03-23T15:44:14.495Z,47.13
2019-03-23T15:46:48.457Z,44.20
2019-03-23T15:49:22.543Z,45.45
2019-03-23T15:51:56.528Z,44.83
2019-03-23T15:54:35.316Z,42.75
2019-03-23T15:57:09.293Z,41.20
2019-03-23T15:59:43.383Z,43.33
2019-03-23T16:02:17.364Z,41.03
2019-03-23T16:04:51.501Z,40.15
2019-03-23T16:07:29.519Z,41.07
2019-03-23T16:10:02.026Z,38.33
2019-03-23T16:12:37.712Z,37.73
2019-03-23T16:15:14.362Z,38.90
2019-03-23T16:17:48.612Z,36.07
2019-03-23T16:20:22.814Z,36.93
2019-03-23T16:22:57.003Z,36.83
2019-03-23T16:25:33.697Z,33.67
2019-03-23T16:28:07.810Z,34.80
2019-03-23T16:30:43.009Z,35.70
2019-03-23T16:33:17.009Z,33.30
2019-03-23T16:35:51.401Z,32.33
2019-03-23T16:38:25.441Z,33.58
2019-03-23T16:40:59.721Z,32.13
2019-03-23T16:43:33.795Z,31.80
2019-03-23T16:46:07.678Z,30.00
2019-03-23T16:48:41.835Z,28.57
2019-03-23T16:51:15.993Z,28.35
2019-03-23T16:53:50.164Z,28.15
2019-03-23T16:56:24.067Z,28.77
2019-03-23T16:58:58.222Z,27.27
2019-03-23T17:01:32.135Z,26.30
2019-03-23T17:04:06.169Z,25.13
2019-03-23T17:06:46.349Z,27.07
2019-03-23T17:09:16.008Z,24.05
2019-03-23T17:11:49.935Z,27.93
2019-03-23T17:14:24.226Z,26.20
2019-03-23T17:17:00.239Z,25.63
2019-03-23T17:19:33.927Z,24.57
2019-03-23T17:22:08.058Z,25.27
2019-03-23T17:24:42.061Z,26.60
2019-03-23T17:27:17.462Z,25.57
2019-03-23T17:29:51.807Z,28.50
2019-03-23T17:32:25.794Z,28.47
2019-03-23T17:35:00.109Z,25.03
2019-03-23T17:37:34.097Z,24.63
2019-03-23T17:40:08.794Z,27.40
2019-03-23T17:42:42.706Z,25.13
2019-03-23T17:45:18.827Z,24.53
2019-03-23T17:47:52.901Z,26.30
2019-03-23T17:50:27.064Z,25.17
2019-03-23T17:53:00.999Z,26.27
2019-03-23T17:55:35.113Z,24.43
2019-03-23T17:58:09.042Z,24.00
2019-03-23T18:00:43.270Z,23.10
2019-03-23T18:03:18.127Z,25.37
2019-03-23T18:05:52.985Z,26.30
2019-03-23T18:08:26.931Z,24.53
2019-03-23T18:11:02.294Z,23.13
2019-03-23T18:13:36.212Z,24.20
2019-03-23T18:16:12.188Z,24.10
2019-03-23T18:18:46.205Z,24.17
2019-03-23T18:21:20.372Z,21.90
2019-03-23T18:23:54.436Z,21.83
2019-03-23T18:26:29.379Z,23.70
2019-03-23T18:29:03.517Z,24.23
2019-03-23T18:31:37.632Z,22.60
2019-03-23T18:34:11.787Z,21.60
2019-03-23T18:36:46.309Z,23.93
2019-03-23T18:39:20.327Z,21.27
2019-03-23T18:41:55.633Z,24.00
2019-03-23T18:44:29.803Z,23.37
2019-03-23T18:47:05.224Z,23.80
2019-03-23T18:49:39.359Z,25.27
2019-03-23T18:52:13.307Z,22.83
2019-03-23T18:54:47.258Z,24.03
2019-03-23T18:57:21.421Z,23.07
2019-03-23T18:59:55.761Z,24.50
2019-03-23T19:02:30.190Z,25.33
2019-03-23T19:05:04.752Z,21.63
2019-03-23T19:07:38.613Z,22.77
2019-03-23T19:10:13.043Z,24.10
2019-03-23T19:12:48.433Z,23.50
2019-03-23T19:15:22.449Z,22.90
2019-03-23T19:17:56.628Z,22.23
2019-03-23T19:20:32.089Z,23.83
2019-03-23T19:23:05.971Z,15.63
2019-03-23T19:25:40.194Z,13.40
2019-03-23T19:28:14.277Z,13.10
2019-03-23T19:30:48.290Z,10.87
2019-03-23T19:33:22.969Z,11.23
2019-03-23T19:35:57.236Z,9.30
2019-03-23T19:38:31.204Z,9.53
2019-03-23T19:41:05.680Z,9.20
2019-03-23T19:43:48.271Z,13.07
2019-03-23T19:46:16.044Z,19.63
2019-03-23T19:48:49.992Z,27.83
2019-03-23T19:51:24.070Z,21.57
2019-03-23T19:53:58.053Z,13.20
2019-03-23T19:56:31.581Z,12.57
2019-03-23T19:59:05.075Z,11.53
2019-03-23T20:01:38.615Z,11.03
2019-03-23T20:04:12.039Z,8.13
2019-03-23T20:06:45.681Z,9.00
2019-03-23T20:09:19.340Z,10.30
2019-03-23T20:11:52.863Z,9.40
2019-03-23T20:14:26.270Z,7.43
2019-03-23T20:16:59.805Z,7.87
2019-03-23T20:19:33.319Z,5.73
2019-03-23T20:22:06.784Z,6.37
2019-03-23T20:24:40.154Z,5.93
2019-03-23T20:27:13.681Z,5.47
2019-03-23T20:29:47.188Z,5.90
2019-03-23T20:32:20.796Z,5.33
2019-03-23T20:34:54.287Z,5.53
2019-03-23T20:37:28.067Z,4.93
2019-03-23T20:40:01.476Z,5.27
2019-03-23T20:42:35.029Z,4.90
2019-03-23T20:45:09.579Z,5.20
2019-03-23T20:47:43.186Z,4.63
2019-03-23T20:50:16.810Z,5.07
2019-03-23T20:52:50.329Z,5.77
2019-03-23T20:55:28.896Z,5.80
2019-03-23T20:58:02.546Z,5.03
2019-03-23T21:00:36.126Z,5.53
2019-03-23T21:03:09.632Z,5.80
2019-03-23T21:05:43.141Z,4.63
2019-03-23T21:08:16.708Z,5.80
2019-03-23T21:10:50.233Z,5.77
2019-03-23T21:13:23.801Z,5.27
2019-03-23T21:15:57.472Z,5.23
2019-03-23T21:18:30.938Z,5.00
2019-03-23T21:21:04.468Z,5.53
2019-03-23T21:23:38.254Z,5.07
2019-03-23T21:26:11.891Z,5.20
2019-03-23T21:28:45.407Z,4.83
2019-03-23T21:31:19.009Z,5.40
2019-03-23T21:33:52.572Z,5.50
2019-03-23T21:36:26.073Z,5.63
2019-03-23T21:38:59.541Z,4.90
2019-03-23T21:41:33.339Z,5.93
2019-03-23T21:44:06.765Z,6.03
2019-03-23T21:46:40.388Z,5.60
2019-03-23T21:49:14.447Z,4.80
2019-03-23T21:51:48.405Z,5.83
2019-03-23T21:54:22.205Z,7.47
2019-03-23T21:56:55.794Z,55.90
2019-03-23T21:59:29.727Z,32.83
2019-03-23T22:02:03.548Z,28.47
2019-03-23T22:04:39.752Z,21.67
2019-03-23T22:07:13.546Z,11.53
2019-03-23T22:09:47.108Z,9.80
2019-03-23T22:12:20.865Z,7.00
2019-03-23T22:14:54.448Z,6.30
2019-03-23T22:17:28.229Z,11.53
2019-03-23T22:20:01.916Z,12.17
2019-03-23T22:22:35.429Z,10.83
2019-03-23T22:25:09.304Z,9.47
2019-03-23T22:27:44.132Z,7.27
2019-03-23T22:30:18.212Z,5.97
2019-03-23T22:32:51.820Z,5.43
2019-03-23T22:35:25.421Z,5.97
2019-03-23T22:37:58.961Z,5.50
2019-03-23T22:40:32.732Z,6.43
2019-03-23T22:43:06.302Z,6.27
2019-03-23T22:45:39.749Z,6.37
2019-03-23T22:48:13.497Z,5.90
2019-03-23T22:50:46.912Z,5.50
2019-03-23T22:53:20.373Z,7.10
2019-03-23T22:55:53.823Z,6.20
2019-03-23T22:58:27.260Z,6.90
2019-03-23T23:01:00.694Z,6.40
2019-03-23T23:03:34.148Z,6.10
2019-03-23T23:06:07.737Z,5.30
2019-03-23T23:08:41.107Z,5.50
2019-03-23T23:11:14.596Z,6.27
2019-03-23T23:13:48.125Z,4.90
2019-03-23T23:16:21.588Z,5.50
2019-03-23T23:18:55.276Z,4.90
2019-03-23T23:21:28.766Z,5.97
2019-03-23T23:24:02.289Z,4.53
2019-03-23T23:26:35.791Z,4.67
2019-03-23T23:29:09.339Z,4.93
2019-03-23T23:31:42.846Z,4.40
2019-03-23T23:34:16.415Z,4.70
2019-03-23T23:36:49.978Z,4.80
2019-03-23T23:39:23.410Z,4.63
2019-03-23T23:41:56.937Z,4.73
2019-03-23T23:44:30.679Z,4.30
2019-03-23T23:47:04.235Z,4.60
2019-03-23T23:49:37.852Z,4.80
2019-03-23T23:52:11.310Z,4.97
2019-03-23T23:54:44.760Z,4.97
2019-03-23T23:57:18.253Z,5.37
2019-03-23T23:59:51.700Z,4.80
